createdAt,value
2024-02-03T00:01:25.172Z,13.50
2024-02-03T00:03:52.249Z,13.60
2024-02-03T00:06:19.305Z,13.70
2024-02-03T00:08:46.162Z,13.60
2024-02-03T00:11:12.947Z,13.30
2024-02-03T00:13:39.843Z,13.10
2024-02-03T00:16:08.353Z,13.50
2024-02-03T00:18:35.757Z,13.20
2024-02-03T00:21:03.746Z,13.80
2024-02-03T00:23:30.488Z,14.30
2024-02-03T00:25:57.355Z,13.80
2024-02-03T00:28:24.043Z,13.70
2024-02-03T00:30:50.942Z,14.00
2024-02-03T00:33:17.856Z,14.00
2024-02-03T00:35:44.727Z,14.40
2024-02-03T00:38:11.546Z,13.90
2024-02-03T00:40:38.412Z,13.80
2024-02-03T00:43:05.215Z,13.30
2024-02-03T00:45:31.978Z,13.50
2024-02-03T00:47:58.782Z,13.30
2024-02-03T00:50:25.592Z,14.10
2024-02-03T00:52:52.347Z,14.30
2024-02-03T00:55:19.053Z,14.10
2024-02-03T00:57:45.950Z,13.60
2024-02-03T01:00:13.674Z,13.40
2024-02-03T01:02:42.563Z,13.60
2024-02-03T01:05:09.756Z,13.60
2024-02-03T01:07:36.540Z,14.10
2024-02-03T01:10:03.625Z,13.90
2024-02-03T01:12:30.485Z,13.80
2024-02-03T01:14:57.452Z,13.60
2024-02-03T01:17:24.193Z,13.60
2024-02-03T01:19:51.496Z,13.20
2024-02-03T01:22:18.376Z,14.00
2024-02-03T01:24:45.212Z,14.10
2024-02-03T01:27:12.093Z,13.70
2024-02-03T01:29:38.808Z,13.70
2024-02-03T01:32:07.326Z,13.40
2024-02-03T01:34:35.550Z,13.70
2024-02-03T01:37:02.510Z,13.50
2024-02-03T01:39:30.396Z,14.00
2024-02-03T01:41:57.262Z,13.70
2024-02-03T01:44:29.971Z,13.60
2024-02-03T01:46:56.975Z,13.30
2024-02-03T01:49:24.003Z,13.20
2024-02-03T01:51:50.905Z,13.50
2024-02-03T01:54:17.971Z,13.80
2024-02-03T01:56:47.617Z,13.60
2024-02-03T01:59:14.477Z,13.20
2024-02-03T02:01:42.112Z,13.30
2024-02-03T02:04:15.407Z,13.50
2024-02-03T02:06:42.437Z,13.30
2024-02-03T02:09:09.241Z,13.10
2024-02-03T02:11:37.652Z,13.10
2024-02-03T02:14:04.495Z,13.10
2024-02-03T02:16:31.334Z,13.00
2024-02-03T02:18:58.255Z,13.70
2024-02-03T02:21:25.053Z,13.70
2024-02-03T02:23:52.048Z,13.60
2024-02-03T02:26:18.970Z,13.50
2024-02-03T02:28:46.048Z,13.30
2024-02-03T02:31:12.742Z,13.20
2024-02-03T02:33:39.587Z,13.10
2024-02-03T02:36:06.759Z,13.60
2024-02-03T02:38:33.583Z,13.50
2024-02-03T02:41:00.275Z,13.10
2024-02-03T02:43:27.496Z,13.10
2024-02-03T02:45:55.338Z,13.20
2024-02-03T02:48:22.296Z,13.10
2024-02-03T02:50:49.659Z,13.20
2024-02-03T02:53:16.389Z,13.50
2024-02-03T02:55:44.174Z,13.40
2024-02-03T02:58:10.973Z,13.00
2024-02-03T03:00:38.708Z,12.80
2024-02-03T03:03:05.883Z,13.00
2024-02-03T03:05:32.642Z,12.60
2024-02-03T03:07:59.551Z,12.80
2024-02-03T03:10:26.367Z,12.60
2024-02-03T03:12:53.155Z,13.00
2024-02-03T03:15:20.036Z,13.00
2024-02-03T03:17:46.743Z,13.00
2024-02-03T03:20:13.589Z,13.20
2024-02-03T03:22:40.343Z,12.90
2024-02-03T03:25:07.469Z,13.10
2024-02-03T03:27:34.166Z,13.00
2024-02-03T03:30:00.904Z,12.80
2024-02-03T03:32:27.827Z,13.40
2024-02-03T03:34:54.705Z,13.10
2024-02-03T03:37:21.476Z,13.70
2024-02-03T03:39:50.342Z,14.00
2024-02-03T03:42:17.222Z,13.40
2024-02-03T03:44:44.977Z,13.90
2024-02-03T03:47:13.166Z,13.20
2024-02-03T03:49:39.965Z,13.10
2024-02-03T03:52:06.751Z,13.10
2024-02-03T03:54:33.558Z,13.20
2024-02-03T03:57:00.379Z,13.30
2024-02-03T03:59:27.117Z,13.30
2024-02-03T04:01:53.857Z,13.70
2024-02-03T04:04:20.678Z,13.50
2024-02-03T04:06:47.530Z,13.50
2024-02-03T04:09:15.601Z,13.30
2024-02-03T04:11:42.776Z,14.00
2024-02-03T04:14:10.584Z,14.00
2024-02-03T04:16:37.534Z,14.20
2024-02-03T04:19:04.761Z,13.60
2024-02-03T04:21:32.947Z,13.20
2024-02-03T04:23:59.865Z,13.90
2024-02-03T04:26:26.557Z,13.60
2024-02-03T04:28:53.306Z,13.20
2024-02-03T04:31:20.660Z,13.40
2024-02-03T04:33:48.611Z,13.20
2024-02-03T04:36:15.449Z,13.20
2024-02-03T04:38:42.288Z,12.80
2024-02-03T04:41:09.588Z,13.30
2024-02-03T04:43:36.512Z,13.50
2024-02-03T04:46:03.331Z,13.40
2024-02-03T04:48:30.285Z,13.00
2024-02-03T04:50:57.151Z,12.60
2024-02-03T04:53:23.890Z,12.90
2024-02-03T04:55:50.764Z,13.00
2024-02-03T04:58:19.931Z,13.10
2024-02-03T05:00:47.267Z,13.30
2024-02-03T05:03:14.096Z,13.50
2024-02-03T05:05:41.039Z,13.30
2024-02-03T05:08:07.779Z,13.70
2024-02-03T05:10:34.609Z,13.90
2024-02-03T05:13:01.421Z,13.80
2024-02-03T05:15:28.156Z,13.30
2024-02-03T05:17:54.980Z,13.70
2024-02-03T05:20:21.744Z,13.40
2024-02-03T05:22:48.745Z,13.70
2024-02-03T05:25:16.637Z,13.50
2024-02-03T05:27:44.396Z,13.80
2024-02-03T05:30:11.825Z,13.90
2024-02-03T05:32:39.699Z,13.70
2024-02-03T05:35:06.523Z,13.20
2024-02-03T05:37:33.205Z,13.70
2024-02-03T05:40:00.259Z,13.40
2024-02-03T05:42:30.798Z,13.60
2024-02-03T05:44:58.341Z,13.60
2024-02-03T05:47:25.343Z,13.70
2024-02-03T05:49:52.374Z,13.60
2024-02-03T05:52:19.550Z,13.00
2024-02-03T05:54:47.684Z,13.50
2024-02-03T05:57:14.678Z,13.50
2024-02-03T05:59:50.943Z,13.60
2024-02-03T06:02:18.694Z,13.30
2024-02-03T06:04:45.560Z,13.50
2024-02-03T06:07:15.734Z,13.30
2024-02-03T06:09:42.616Z,13.50
2024-02-03T06:12:10.601Z,14.00
2024-02-03T06:14:39.559Z,14.10
2024-02-03T06:17:06.275Z,13.90
2024-02-03T06:19:32.999Z,13.70
2024-02-03T06:21:59.793Z,13.60
2024-02-03T06:24:26.495Z,13.70
2024-02-03T06:26:53.277Z,13.80
2024-02-03T06:29:20.016Z,13.60
2024-02-03T06:31:46.816Z,14.20
2024-02-03T06:34:13.614Z,13.70
2024-02-03T06:36:41.770Z,13.60
2024-02-03T06:39:09.684Z,13.90
2024-02-03T06:41:36.813Z,13.70
2024-02-03T06:44:03.664Z,13.80
2024-02-03T06:46:30.365Z,13.60
2024-02-03T06:48:57.106Z,13.70
2024-02-03T06:51:24.084Z,13.10
2024-02-03T06:53:50.857Z,13.20
2024-02-03T06:56:17.585Z,13.80
2024-02-03T06:58:44.472Z,13.30
2024-02-03T07:01:11.411Z,12.90
2024-02-03T07:03:38.283Z,13.40
2024-02-03T07:06:05.396Z,12.90
2024-02-03T07:08:32.167Z,13.40
2024-02-03T07:10:58.976Z,13.30
2024-02-03T07:13:26.614Z,13.40
2024-02-03T07:15:53.515Z,13.90
2024-02-03T07:18:21.289Z,13.80
2024-02-03T07:20:48.431Z,14.00
2024-02-03T07:23:15.141Z,14.10
2024-02-03T07:25:41.886Z,13.70
2024-02-03T07:28:08.689Z,13.50
2024-02-03T07:30:35.604Z,13.50
2024-02-03T07:33:07.994Z,13.70
2024-02-03T07:35:35.623Z,13.20
2024-02-03T07:38:02.480Z,13.50
2024-02-03T07:40:30.257Z,13.70
2024-02-03T07:42:57.117Z,13.40
2024-02-03T07:45:24.179Z,13.50
2024-02-03T07:47:51.046Z,13.50
2024-02-03T07:50:19.927Z,13.60
2024-02-03T07:52:46.762Z,13.70
2024-02-03T07:55:14.110Z,13.80
2024-02-03T07:57:40.924Z,13.80
2024-02-03T08:00:09.237Z,13.40
2024-02-03T08:02:36.119Z,14.20
2024-02-03T08:05:03.054Z,13.70
2024-02-03T08:07:29.940Z,13.70
2024-02-03T08:09:56.817Z,13.90
2024-02-03T08:12:23.628Z,13.50
2024-02-03T08:14:50.405Z,13.90
2024-02-03T08:17:17.152Z,13.50
2024-02-03T08:19:43.876Z,13.60
2024-02-03T08:22:10.657Z,13.70
2024-02-03T08:24:37.496Z,13.80
2024-02-03T08:27:04.552Z,13.90
2024-02-03T08:29:31.827Z,13.90
2024-02-03T08:31:58.567Z,13.80
2024-02-03T08:34:25.533Z,14.30
2024-02-03T08:36:52.836Z,14.10
2024-02-03T08:41:49.381Z,14.00
2024-02-03T08:44:17.139Z,14.60
2024-02-03T08:46:43.899Z,14.40
2024-02-03T08:49:10.836Z,14.10
2024-02-03T08:51:39.480Z,14.40
2024-02-03T08:54:07.564Z,14.70
2024-02-03T08:56:34.363Z,14.40
2024-02-03T08:59:01.088Z,15.20
2024-02-03T09:01:27.924Z,15.10
2024-02-03T09:03:55.474Z,15.00
2024-02-03T09:06:22.321Z,14.90
2024-02-03T09:08:49.183Z,14.80
2024-02-03T09:11:15.996Z,15.00
2024-02-03T09:13:42.685Z,14.80
2024-02-03T09:16:09.397Z,14.70
2024-02-03T09:18:36.295Z,14.80
2024-02-03T09:21:03.473Z,14.60
2024-02-03T09:23:30.227Z,14.90
2024-02-03T09:25:56.984Z,15.20
2024-02-03T09:28:23.722Z,15.30
2024-02-03T09:30:50.545Z,14.80
2024-02-03T09:33:17.475Z,14.60
2024-02-03T09:35:44.423Z,15.30
2024-02-03T09:38:11.228Z,15.20
2024-02-03T09:40:41.147Z,15.30
2024-02-03T09:43:08.086Z,14.70
2024-02-03T09:45:36.392Z,14.80
2024-02-03T09:48:03.745Z,14.70
2024-02-03T09:50:31.745Z,14.90
2024-02-03T09:53:01.778Z,14.90
2024-02-03T09:55:28.548Z,15.20
2024-02-03T09:57:55.853Z,15.40
2024-02-03T10:00:25.371Z,15.10
2024-02-03T10:02:53.143Z,15.30
2024-02-03T10:05:28.488Z,15.30
2024-02-03T10:08:03.500Z,15.00
2024-02-03T10:13:12.868Z,15.50
2024-02-03T10:15:40.927Z,15.10
2024-02-03T10:18:09.581Z,14.80
2024-02-03T10:20:37.256Z,15.00
2024-02-03T10:23:04.588Z,15.10
2024-02-03T10:25:32.783Z,15.00
2024-02-03T10:28:01.727Z,15.10
2024-02-03T10:30:32.431Z,15.90
2024-02-03T10:33:03.571Z,15.50
2024-02-03T10:35:34.810Z,15.10
2024-02-03T10:38:02.154Z,14.70
2024-02-03T10:40:34.698Z,15.00
2024-02-03T10:43:07.647Z,15.50
2024-02-03T10:45:39.123Z,14.90
2024-02-03T10:48:10.916Z,15.40
2024-02-03T10:50:43.320Z,15.20
2024-02-03T10:53:15.949Z,15.40
2024-02-03T10:55:49.957Z,15.10
2024-02-03T10:58:16.869Z,14.80
2024-02-03T11:00:43.929Z,15.20
2024-02-03T11:03:12.333Z,15.20
2024-02-03T11:05:40.050Z,14.90
2024-02-03T11:08:11.972Z,14.70
2024-02-03T11:10:39.687Z,14.60
2024-02-03T11:13:22.194Z,15.00
2024-02-03T11:15:57.222Z,15.00
2024-02-03T11:18:24.312Z,15.60
2024-02-03T11:20:51.508Z,15.30
2024-02-03T11:23:18.377Z,15.30
2024-02-03T11:25:47.203Z,15.30
2024-02-03T11:28:14.296Z,15.30
2024-02-03T11:30:41.250Z,15.50
2024-02-03T11:33:09.314Z,15.40
2024-02-03T11:35:36.821Z,15.40
2024-02-03T11:38:07.745Z,15.60
2024-02-03T11:40:46.597Z,15.50
2024-02-03T11:43:16.257Z,15.50
2024-02-03T11:45:46.722Z,15.60
2024-02-03T11:48:14.123Z,15.50
2024-02-03T11:50:41.928Z,15.40
2024-02-03T11:53:08.727Z,15.50
2024-02-03T11:55:36.285Z,15.30
2024-02-03T11:58:03.167Z,15.40
2024-02-03T12:00:29.963Z,15.80
2024-02-03T12:02:56.691Z,15.70
2024-02-03T12:05:24.112Z,15.50
2024-02-03T12:07:51.016Z,15.40
2024-02-03T12:10:17.863Z,15.60
2024-02-03T12:12:46.175Z,15.70
2024-02-03T12:15:13.106Z,15.30
2024-02-03T12:17:41.141Z,15.60
2024-02-03T12:20:24.521Z,15.50
2024-02-03T12:22:56.841Z,15.50
2024-02-03T12:25:24.021Z,15.40
2024-02-03T12:27:51.282Z,15.20
2024-02-03T12:30:19.458Z,15.30
2024-02-03T12:32:46.987Z,15.30
2024-02-03T12:35:14.902Z,15.10
2024-02-03T12:37:42.115Z,15.30
2024-02-03T12:40:12.545Z,15.30
2024-02-03T12:42:39.311Z,15.10
2024-02-03T12:45:07.468Z,15.20
2024-02-03T12:47:35.062Z,15.00
2024-02-03T12:50:03.020Z,15.30
2024-02-03T12:52:30.396Z,15.10
2024-02-03T12:54:57.551Z,15.30
2024-02-03T12:57:24.669Z,15.40
2024-02-03T12:59:51.564Z,15.30
2024-02-03T13:02:18.766Z,15.30
2024-02-03T13:04:45.815Z,15.20
2024-02-03T13:07:15.043Z,15.20
2024-02-03T13:09:43.535Z,15.20
2024-02-03T13:12:10.510Z,15.30
2024-02-03T13:14:37.329Z,15.20
2024-02-03T13:17:05.531Z,15.10
2024-02-03T13:19:32.321Z,15.30
2024-02-03T13:22:00.135Z,15.30
2024-02-03T13:24:27.159Z,15.10
2024-02-03T13:26:54.172Z,15.20
2024-02-03T13:29:20.983Z,15.10
2024-02-03T13:31:48.035Z,15.10
2024-02-03T13:34:18.666Z,15.10
2024-02-03T13:36:47.687Z,15.10
2024-02-03T13:39:14.573Z,15.20
2024-02-03T13:41:41.609Z,15.20
2024-02-03T13:44:08.408Z,14.90
2024-02-03T13:46:35.093Z,15.00
2024-02-03T13:49:02.892Z,15.00
2024-02-03T13:51:32.311Z,15.10
2024-02-03T13:53:59.442Z,15.00
2024-02-03T13:56:26.181Z,15.00
2024-02-03T13:58:52.913Z,14.90
2024-02-03T14:01:22.813Z,15.00
2024-02-03T14:03:49.629Z,15.20
2024-02-03T14:06:16.512Z,14.90
2024-02-03T14:08:43.283Z,14.90
2024-02-03T14:11:10.122Z,14.90
2024-02-03T14:13:36.871Z,15.00
2024-02-03T14:16:04.175Z,15.00
2024-02-03T14:18:31.207Z,14.80
2024-02-03T14:20:58.072Z,14.80
2024-02-03T14:23:24.861Z,15.10
2024-02-03T14:25:51.727Z,15.00
2024-02-03T14:28:18.652Z,14.90
2024-02-03T14:30:46.277Z,14.90
2024-02-03T14:33:13.335Z,14.90
2024-02-03T14:35:41.491Z,14.90
2024-02-03T14:38:08.389Z,14.90
2024-02-03T14:40:35.218Z,14.80
2024-02-03T14:43:02.058Z,14.90
2024-02-03T14:47:55.741Z,15.60
2024-02-03T14:50:23.770Z,15.40
2024-02-03T14:52:51.638Z,15.40
2024-02-03T14:55:18.428Z,14.90
2024-02-03T14:57:45.939Z,15.00
2024-02-03T15:00:13.265Z,14.90
2024-02-03T15:02:40.252Z,14.90
2024-02-03T15:05:07.725Z,14.90
2024-02-03T15:07:36.496Z,15.20
2024-02-03T15:10:05.224Z,15.20
2024-02-03T15:12:35.023Z,15.00
2024-02-03T15:15:02.350Z,15.00
2024-02-03T15:17:29.122Z,14.90
2024-02-03T15:19:56.246Z,14.90
2024-02-03T15:22:23.544Z,14.80
2024-02-03T15:24:50.589Z,14.90
2024-02-03T15:27:19.048Z,15.10
2024-02-03T15:29:45.902Z,15.40
2024-02-03T15:32:12.765Z,15.20
2024-02-03T15:34:39.531Z,15.00
2024-02-03T15:37:06.578Z,15.00
2024-02-03T15:39:33.434Z,14.90
2024-02-03T15:42:02.192Z,15.10
2024-02-03T15:44:38.261Z,15.00
2024-02-03T15:47:08.805Z,15.00
2024-02-03T15:49:35.965Z,15.10
2024-02-03T15:52:03.865Z,15.00
2024-02-03T15:54:30.947Z,14.90
2024-02-03T15:56:58.045Z,14.90
2024-02-03T15:59:25.103Z,15.10
2024-02-03T16:01:52.098Z,14.90
2024-02-03T16:04:19.301Z,14.30
2024-02-03T16:06:46.151Z,14.80
2024-02-03T16:09:13.117Z,14.70
2024-02-03T16:11:39.966Z,14.50
2024-02-03T16:14:07.022Z,14.90
2024-02-03T16:16:34.132Z,15.10
2024-02-03T16:19:01.132Z,14.90
2024-02-03T16:21:28.858Z,14.80
2024-02-03T16:23:56.038Z,14.70
2024-02-03T16:26:23.974Z,14.80
2024-02-03T16:28:50.821Z,14.80
2024-02-03T16:31:17.648Z,14.50
2024-02-03T16:33:45.360Z,14.70
2024-02-03T16:36:12.258Z,14.50
2024-02-03T16:38:39.090Z,14.60
2024-02-03T16:41:05.917Z,14.60
2024-02-03T16:43:33.570Z,14.60
2024-02-03T16:46:00.426Z,14.80
2024-02-03T16:48:27.418Z,15.00
2024-02-03T16:50:54.386Z,14.80
2024-02-03T16:53:21.174Z,14.70
2024-02-03T16:55:47.955Z,14.90
2024-02-03T16:58:14.781Z,14.90
2024-02-03T17:00:41.910Z,14.80
2024-02-03T17:03:09.052Z,14.60
2024-02-03T17:05:36.357Z,14.60
2024-02-03T17:08:03.345Z,14.50
2024-02-03T17:10:30.200Z,14.60
2024-02-03T17:12:57.358Z,14.40
2024-02-03T17:15:24.297Z,14.50
2024-02-03T17:17:51.109Z,14.50
2024-02-03T17:20:17.975Z,14.40
2024-02-03T17:22:44.905Z,14.50
2024-02-03T17:25:13.819Z,14.40
2024-02-03T17:27:45.024Z,14.30
2024-02-03T17:30:16.040Z,14.50
2024-02-03T17:32:43.222Z,14.30
2024-02-03T17:35:10.277Z,14.40
2024-02-03T17:37:37.093Z,14.30
2024-02-03T17:40:04.239Z,14.10
2024-02-03T17:42:32.031Z,14.10
2024-02-03T17:44:58.801Z,14.10
2024-02-03T17:47:26.311Z,14.20
2024-02-03T17:49:53.546Z,14.30
2024-02-03T17:52:20.437Z,14.20
2024-02-03T17:54:48.833Z,14.50
2024-02-03T17:57:15.912Z,14.40
2024-02-03T17:59:42.667Z,14.50
2024-02-03T18:02:09.461Z,14.20
2024-02-03T18:04:36.283Z,14.30
2024-02-03T18:07:03.169Z,14.20
2024-02-03T18:09:31.045Z,14.20
2024-02-03T18:11:57.804Z,14.40
2024-02-03T18:14:24.766Z,14.10
2024-02-03T18:16:51.621Z,14.10
2024-02-03T18:19:18.450Z,13.80
2024-02-03T18:21:45.345Z,13.00
2024-02-03T18:24:12.142Z,12.70
2024-02-03T18:26:38.989Z,13.50
2024-02-03T18:29:05.706Z,13.80
2024-02-03T18:31:32.652Z,13.90
2024-02-03T18:33:59.626Z,13.80
2024-02-03T18:36:26.628Z,13.80
2024-02-03T18:38:53.414Z,13.90
2024-02-03T18:41:20.255Z,13.80
2024-02-03T18:43:46.999Z,13.60
2024-02-03T18:46:14.010Z,13.90
2024-02-03T18:48:41.263Z,13.90
2024-02-03T18:51:08.478Z,13.70
2024-02-03T18:53:35.602Z,13.60
2024-02-03T18:56:02.388Z,13.60
2024-02-03T18:58:30.217Z,13.60
2024-02-03T19:00:57.293Z,13.70
2024-02-03T19:03:25.386Z,13.40
2024-02-03T19:05:52.220Z,13.50
2024-02-03T19:08:19.013Z,13.50
2024-02-03T19:10:45.793Z,13.60
2024-02-03T19:13:12.606Z,13.60
2024-02-03T19:15:39.382Z,13.80
2024-02-03T19:18:08.391Z,13.70
2024-02-03T19:20:35.272Z,13.60
2024-02-03T19:23:02.130Z,13.60
2024-02-03T19:25:28.851Z,13.50
2024-02-03T19:27:57.051Z,13.50
2024-02-03T19:30:23.881Z,13.60
2024-02-03T19:32:50.719Z,13.60
2024-02-03T19:35:18.799Z,13.90
2024-02-03T19:37:45.556Z,13.60
2024-02-03T19:40:13.169Z,13.50
2024-02-03T19:42:42.506Z,13.40
2024-02-03T19:45:12.292Z,13.40
2024-02-03T19:47:39.224Z,13.40
2024-02-03T19:50:07.153Z,13.50
2024-02-03T19:52:34.124Z,13.50
2024-02-03T19:55:01.039Z,13.50
2024-02-03T19:57:27.921Z,13.40
2024-02-03T19:59:54.760Z,13.80
2024-02-03T20:02:21.765Z,13.70
2024-02-03T20:04:48.800Z,13.80
2024-02-03T20:07:16.259Z,13.40
2024-02-03T20:09:43.533Z,13.50
2024-02-03T20:12:10.602Z,13.60
2024-02-03T20:14:39.667Z,13.80
2024-02-03T20:17:06.420Z,13.70
2024-02-03T20:19:33.574Z,13.60
2024-02-03T20:22:01.692Z,13.40
2024-02-03T20:24:28.957Z,13.60
2024-02-03T20:26:56.338Z,13.20
2024-02-03T20:29:23.195Z,13.50
2024-02-03T20:31:50.292Z,13.40
2024-02-03T20:34:18.890Z,13.40
2024-02-03T20:36:47.471Z,13.50
2024-02-03T20:39:15.164Z,13.30
2024-02-03T20:41:43.718Z,13.20
2024-02-03T20:44:11.037Z,13.60
2024-02-03T20:46:38.140Z,13.40
2024-02-03T20:49:05.358Z,13.20
2024-02-03T20:51:32.353Z,13.40
2024-02-03T20:53:59.329Z,13.40
2024-02-03T20:56:26.350Z,13.10
2024-02-03T20:58:53.123Z,13.00
2024-02-03T21:01:19.958Z,13.20
2024-02-03T21:03:47.761Z,13.30
2024-02-03T21:06:16.428Z,13.50
2024-02-03T21:08:43.568Z,14.20
2024-02-03T21:11:10.563Z,13.80
2024-02-03T21:13:38.257Z,13.90
2024-02-03T21:16:06.350Z,14.30
2024-02-03T21:18:33.501Z,13.90
2024-02-03T21:21:00.545Z,14.40
2024-02-03T21:23:27.468Z,13.90
2024-02-03T21:25:54.542Z,13.90
2024-02-03T21:28:21.258Z,13.50
2024-02-03T21:30:48.235Z,13.30
2024-02-03T21:33:15.223Z,13.60
2024-02-03T21:35:42.149Z,13.30
2024-02-03T21:38:08.938Z,14.10
2024-02-03T21:40:37.730Z,14.30
2024-02-03T21:43:04.969Z,14.30
2024-02-03T21:45:31.952Z,13.50
2024-02-03T21:47:58.879Z,14.00
2024-02-03T21:50:25.694Z,14.40
2024-02-03T21:52:52.487Z,14.10
2024-02-03T21:55:19.306Z,13.90
2024-02-03T21:57:46.038Z,14.20
2024-02-03T22:00:13.382Z,14.50
2024-02-03T22:02:41.176Z,14.00
2024-02-03T22:05:08.681Z,13.60
2024-02-03T22:07:35.423Z,13.70
2024-02-03T22:10:02.437Z,13.90
2024-02-03T22:12:30.438Z,14.10
2024-02-03T22:14:57.503Z,13.70
2024-02-03T22:17:24.284Z,13.70
2024-02-03T22:19:51.567Z,13.80
2024-02-03T22:22:18.360Z,14.30
2024-02-03T22:24:45.144Z,14.10
2024-02-03T22:27:12.943Z,14.10
2024-02-03T22:29:40.440Z,14.30
2024-02-03T22:32:07.877Z,14.00
2024-02-03T22:34:36.326Z,14.30
2024-02-03T22:37:04.366Z,13.70
2024-02-03T22:39:31.317Z,13.90
2024-02-03T22:41:59.024Z,13.70
2024-02-03T22:44:25.753Z,13.70
2024-02-03T22:46:52.581Z,13.60
2024-02-03T22:49:19.402Z,13.80
2024-02-03T22:51:46.366Z,13.50
2024-02-03T22:54:14.295Z,13.80
2024-02-03T22:56:43.743Z,13.50
2024-02-03T22:59:13.332Z,13.20
2024-02-03T23:01:40.539Z,13.20
2024-02-03T23:04:07.531Z,13.30
2024-02-03T23:06:34.485Z,13.60
2024-02-03T23:09:01.270Z,13.30
2024-02-03T23:11:28.048Z,13.20
2024-02-03T23:13:54.785Z,13.40
2024-02-03T23:16:21.529Z,13.10
2024-02-03T23:18:48.395Z,12.70
2024-02-03T23:21:17.004Z,12.70
2024-02-03T23:23:44.435Z,12.90
2024-02-03T23:26:12.092Z,12.70
2024-02-03T23:28:39.248Z,12.90
2024-02-03T23:31:06.376Z,13.20
2024-02-03T23:33:37.474Z,12.70
2024-02-03T23:36:05.083Z,12.50
2024-02-03T23:38:33.449Z,12.50
2024-02-03T23:41:00.759Z,12.50
2024-02-03T23:43:27.836Z,12.20
2024-02-03T23:45:54.601Z,12.30
2024-02-03T23:48:21.732Z,12.30
2024-02-03T23:50:48.681Z,12.20
2024-02-03T23:53:16.372Z,12.20
2024-02-03T23:55:43.826Z,12.90
2024-02-03T23:58:10.786Z,12.70
